sensor_id;sensor_type;location;lat;lon;timestamp;P1;durP1;ratioP1;P2;durP2;ratioP2
9102;SDS011;4587;51.434;6.788;2023-07-28T00:02:06;3.97;;;2.90;;
9102;SDS011;4587;51.434;6.788;2023-07-28T00:04:33;3.97;;;2.87;;
9102;SDS011;4587;51.434;6.788;2023-07-28T00:07:00;5.40;;;2.87;;
9102;SDS011;4587;51.434;6.788;2023-07-28T00:09:26;4.67;;;2.90;;
9102;SDS011;4587;51.434;6.788;2023-07-28T00:11:51;3.37;;;3.07;;
9102;SDS011;4587;51.434;6.788;2023-07-28T00:14:17;3.13;;;2.60;;
9102;SDS011;4587;51.434;6.788;2023-07-28T00:16:42;3.83;;;2.77;;
9102;SDS011;4587;51.434;6.788;2023-07-28T00:19:08;3.67;;;3.10;;
9102;SDS011;4587;51.434;6.788;2023-07-28T00:21:34;4.87;;;3.27;;
9102;SDS011;4587;51.434;6.788;2023-07-28T00:23:59;5.53;;;3.17;;
9102;SDS011;4587;51.434;6.788;2023-07-28T00:26:25;4.83;;;3.80;;
9102;SDS011;4587;51.434;6.788;2023-07-28T00:28:50;4.93;;;3.50;;
9102;SDS011;4587;51.434;6.788;2023-07-28T00:31:16;4.30;;;3.50;;
9102;SDS011;4587;51.434;6.788;2023-07-28T00:33:41;3.87;;;3.50;;
9102;SDS011;4587;51.434;6.788;2023-07-28T00:36:07;3.70;;;3.40;;
9102;SDS011;4587;51.434;6.788;2023-07-28T00:38:33;4.40;;;3.67;;
9102;SDS011;4587;51.434;6.788;2023-07-28T00:40:58;5.50;;;3.97;;
9102;SDS011;4587;51.434;6.788;2023-07-28T00:43:24;4.97;;;4.33;;
9102;SDS011;4587;51.434;6.788;2023-07-28T00:45:50;5.37;;;4.10;;
9102;SDS011;4587;51.434;6.788;2023-07-28T00:48:15;4.70;;;4.30;;
9102;SDS011;4587;51.434;6.788;2023-07-28T00:50:43;5.13;;;4.73;;
9102;SDS011;4587;51.434;6.788;2023-07-28T00:53:10;5.20;;;4.70;;
9102;SDS011;4587;51.434;6.788;2023-07-28T00:55:36;5.53;;;4.80;;
9102;SDS011;4587;51.434;6.788;2023-07-28T00:58:03;5.27;;;4.77;;
9102;SDS011;4587;51.434;6.788;2023-07-28T01:00:29;4.97;;;4.57;;
9102;SDS011;4587;51.434;6.788;2023-07-28T01:02:55;5.10;;;4.37;;
9102;SDS011;4587;51.434;6.788;2023-07-28T01:05:22;5.73;;;4.30;;
9102;SDS011;4587;51.434;6.788;2023-07-28T01:08:28;5.47;;;4.37;;
9102;SDS011;4587;51.434;6.788;2023-07-28T01:10:55;4.60;;;4.20;;
9102;SDS011;4587;51.434;6.788;2023-07-28T01:13:20;4.67;;;4.20;;
9102;SDS011;4587;51.434;6.788;2023-07-28T01:15:46;4.57;;;4.00;;
9102;SDS011;4587;51.434;6.788;2023-07-28T01:18:12;4.50;;;4.00;;
9102;SDS011;4587;51.434;6.788;2023-07-28T01:20:38;4.97;;;4.47;;
9102;SDS011;4587;51.434;6.788;2023-07-28T01:28:15;4.27;;;3.83;;
9102;SDS011;4587;51.434;6.788;2023-07-28T01:30:42;4.43;;;3.60;;
9102;SDS011;4587;51.434;6.788;2023-07-28T01:33:08;5.20;;;3.80;;
9102;SDS011;4587;51.434;6.788;2023-07-28T01:35:35;4.17;;;3.67;;
9102;SDS011;4587;51.434;6.788;2023-07-28T01:38:01;6.17;;;3.87;;
9102;SDS011;4587;51.434;6.788;2023-07-28T01:40:26;4.17;;;3.77;;
9102;SDS011;4587;51.434;6.788;2023-07-28T01:42:52;4.20;;;3.80;;
9102;SDS011;4587;51.434;6.788;2023-07-28T01:45:17;6.10;;;4.10;;
9102;SDS011;4587;51.434;6.788;2023-07-28T01:47:43;5.77;;;4.20;;
9102;SDS011;4587;51.434;6.788;2023-07-28T01:50:08;5.00;;;4.23;;
9102;SDS011;4587;51.434;6.788;2023-07-28T01:52:34;5.07;;;4.67;;
9102;SDS011;4587;51.434;6.788;2023-07-28T01:55:00;5.03;;;3.97;;
9102;SDS011;4587;51.434;6.788;2023-07-28T01:57:26;4.27;;;3.97;;
9102;SDS011;4587;51.434;6.788;2023-07-28T01:59:53;4.50;;;3.70;;
9102;SDS011;4587;51.434;6.788;2023-07-28T02:02:19;5.30;;;3.70;;
9102;SDS011;4587;51.434;6.788;2023-07-28T02:04:44;4.13;;;3.67;;
9102;SDS011;4587;51.434;6.788;2023-07-28T02:07:11;3.73;;;2.87;;
9102;SDS011;4587;51.434;6.788;2023-07-28T02:09:36;4.33;;;3.20;;
9102;SDS011;4587;51.434;6.788;2023-07-28T02:12:02;3.60;;;3.30;;
9102;SDS011;4587;51.434;6.788;2023-07-28T02:14:27;4.97;;;3.53;;
9102;SDS011;4587;51.434;6.788;2023-07-28T02:16:53;3.87;;;3.30;;
9102;SDS011;4587;51.434;6.788;2023-07-28T02:19:18;3.73;;;3.30;;
9102;SDS011;4587;51.434;6.788;2023-07-28T02:21:44;3.50;;;3.13;;
9102;SDS011;4587;51.434;6.788;2023-07-28T02:24:09;2.93;;;2.73;;
9102;SDS011;4587;51.434;6.788;2023-07-28T02:26:35;3.07;;;2.77;;
9102;SDS011;4587;51.434;6.788;2023-07-28T02:29:00;3.43;;;2.87;;
9102;SDS011;4587;51.434;6.788;2023-07-28T02:31:26;3.20;;;2.90;;
9102;SDS011;4587;51.434;6.788;2023-07-28T02:33:51;3.10;;;2.90;;
9102;SDS011;4587;51.434;6.788;2023-07-28T02:36:17;3.37;;;3.10;;
9102;SDS011;4587;51.434;6.788;2023-07-28T02:38:42;3.73;;;2.80;;
9102;SDS011;4587;51.434;6.788;2023-07-28T02:41:08;3.43;;;2.67;;
9102;SDS011;4587;51.434;6.788;2023-07-28T02:43:33;2.80;;;2.60;;
9102;SDS011;4587;51.434;6.788;2023-07-28T02:45:59;3.13;;;2.83;;
9102;SDS011;4587;51.434;6.788;2023-07-28T02:48:25;4.33;;;3.10;;
9102;SDS011;4587;51.434;6.788;2023-07-28T02:50:51;4.17;;;3.10;;
9102;SDS011;4587;51.434;6.788;2023-07-28T02:53:17;3.27;;;2.70;;
9102;SDS011;4587;51.434;6.788;2023-07-28T02:55:43;3.77;;;3.10;;
9102;SDS011;4587;51.434;6.788;2023-07-28T02:58:10;3.70;;;2.93;;
9102;SDS011;4587;51.434;6.788;2023-07-28T03:00:39;4.03;;;3.30;;
9102;SDS011;4587;51.434;6.788;2023-07-28T03:03:06;3.63;;;3.17;;
9102;SDS011;4587;51.434;6.788;2023-07-28T03:05:35;3.60;;;2.90;;
9102;SDS011;4587;51.434;6.788;2023-07-28T03:08:04;3.00;;;2.80;;
9102;SDS011;4587;51.434;6.788;2023-07-28T03:10:30;3.07;;;2.77;;
9102;SDS011;4587;51.434;6.788;2023-07-28T03:12:56;4.17;;;3.00;;
9102;SDS011;4587;51.434;6.788;2023-07-28T03:15:22;2.70;;;2.50;;
9102;SDS011;4587;51.434;6.788;2023-07-28T03:17:48;2.70;;;2.50;;
9102;SDS011;4587;51.434;6.788;2023-07-28T03:20:14;2.70;;;2.50;;
9102;SDS011;4587;51.434;6.788;2023-07-28T03:22:40;3.87;;;2.60;;
9102;SDS011;4587;51.434;6.788;2023-07-28T03:25:05;3.80;;;2.70;;
9102;SDS011;4587;51.434;6.788;2023-07-28T03:27:31;2.93;;;2.43;;
9102;SDS011;4587;51.434;6.788;2023-07-28T03:29:57;2.63;;;2.43;;
9102;SDS011;4587;51.434;6.788;2023-07-28T03:32:23;4.37;;;2.70;;
9102;SDS011;4587;51.434;6.788;2023-07-28T03:34:48;3.00;;;2.40;;
9102;SDS011;4587;51.434;6.788;2023-07-28T03:37:14;2.70;;;2.37;;
9102;SDS011;4587;51.434;6.788;2023-07-28T03:39:39;3.67;;;2.80;;
9102;SDS011;4587;51.434;6.788;2023-07-28T03:42:05;4.87;;;3.00;;
9102;SDS011;4587;51.434;6.788;2023-07-28T03:44:31;2.93;;;2.43;;
9102;SDS011;4587;51.434;6.788;2023-07-28T03:46:57;2.60;;;2.40;;
9102;SDS011;4587;51.434;6.788;2023-07-28T03:49:22;4.10;;;2.50;;
9102;SDS011;4587;51.434;6.788;2023-07-28T03:51:48;2.80;;;2.60;;
9102;SDS011;4587;51.434;6.788;2023-07-28T03:54:13;3.00;;;2.70;;
9102;SDS011;4587;51.434;6.788;2023-07-28T03:56:39;2.60;;;2.40;;
9102;SDS011;4587;51.434;6.788;2023-07-28T03:59:04;2.97;;;2.43;;
9102;SDS011;4587;51.434;6.788;2023-07-28T04:01:30;3.70;;;2.60;;
9102;SDS011;4587;51.434;6.788;2023-07-28T04:03:56;3.23;;;2.60;;
9102;SDS011;4587;51.434;6.788;2023-07-28T04:06:38;2.67;;;2.47;;
9102;SDS011;4587;51.434;6.788;2023-07-28T04:09:15;2.77;;;2.57;;
9102;SDS011;4587;51.434;6.788;2023-07-28T04:11:41;2.40;;;2.20;;
9102;SDS011;4587;51.434;6.788;2023-07-28T04:14:07;3.13;;;2.50;;
9102;SDS011;4587;51.434;6.788;2023-07-28T04:16:32;2.50;;;2.30;;
9102;SDS011;4587;51.434;6.788;2023-07-28T04:18:58;2.67;;;2.30;;
9102;SDS011;4587;51.434;6.788;2023-07-28T04:21:24;1.80;;;1.70;;
9102;SDS011;4587;51.434;6.788;2023-07-28T04:23:50;2.33;;;2.00;;
9102;SDS011;4587;51.434;6.788;2023-07-28T04:26:18;2.20;;;2.10;;
9102;SDS011;4587;51.434;6.788;2023-07-28T04:28:44;3.50;;;3.20;;
9102;SDS011;4587;51.434;6.788;2023-07-28T04:31:10;2.33;;;2.17;;
9102;SDS011;4587;51.434;6.788;2023-07-28T04:33:36;2.67;;;2.13;;
9102;SDS011;4587;51.434;6.788;2023-07-28T04:36:02;2.40;;;2.20;;
9102;SDS011;4587;51.434;6.788;2023-07-28T04:38:28;2.43;;;2.23;;
9102;SDS011;4587;51.434;6.788;2023-07-28T04:40:53;2.50;;;2.30;;
9102;SDS011;4587;51.434;6.788;2023-07-28T04:43:19;3.13;;;2.83;;
9102;SDS011;4587;51.434;6.788;2023-07-28T04:45:45;2.17;;;2.00;;
9102;SDS011;4587;51.434;6.788;2023-07-28T04:48:10;2.43;;;2.23;;
9102;SDS011;4587;51.434;6.788;2023-07-28T04:50:36;2.50;;;2.30;;
9102;SDS011;4587;51.434;6.788;2023-07-28T04:53:02;1.93;;;1.73;;
9102;SDS011;4587;51.434;6.788;2023-07-28T04:55:28;2.70;;;2.50;;
9102;SDS011;4587;51.434;6.788;2023-07-28T04:57:53;2.70;;;2.50;;
9102;SDS011;4587;51.434;6.788;2023-07-28T05:00:19;2.63;;;2.40;;
9102;SDS011;4587;51.434;6.788;2023-07-28T05:02:45;2.80;;;2.60;;
9102;SDS011;4587;51.434;6.788;2023-07-28T05:05:10;2.40;;;2.20;;
9102;SDS011;4587;51.434;6.788;2023-07-28T05:07:36;3.17;;;2.57;;
9102;SDS011;4587;51.434;6.788;2023-07-28T05:10:02;3.27;;;2.67;;
9102;SDS011;4587;51.434;6.788;2023-07-28T05:12:27;2.70;;;2.50;;
9102;SDS011;4587;51.434;6.788;2023-07-28T05:14:53;2.47;;;2.27;;
9102;SDS011;4587;51.434;6.788;2023-07-28T05:17:18;2.40;;;2.20;;
9102;SDS011;4587;51.434;6.788;2023-07-28T05:19:44;2.60;;;2.40;;
9102;SDS011;4587;51.434;6.788;2023-07-28T05:22:09;2.10;;;1.90;;
9102;SDS011;4587;51.434;6.788;2023-07-28T05:24:35;2.37;;;1.70;;
9102;SDS011;4587;51.434;6.788;2023-07-28T05:27:01;2.60;;;1.87;;
9102;SDS011;4587;51.434;6.788;2023-07-28T05:29:26;2.67;;;2.30;;
9102;SDS011;4587;51.434;6.788;2023-07-28T05:31:52;2.60;;;2.13;;
9102;SDS011;4587;51.434;6.788;2023-07-28T05:34:17;2.33;;;1.97;;
9102;SDS011;4587;51.434;6.788;2023-07-28T05:36:43;2.10;;;1.90;;
9102;SDS011;4587;51.434;6.788;2023-07-28T05:39:09;3.43;;;2.40;;
9102;SDS011;4587;51.434;6.788;2023-07-28T05:41:36;3.13;;;2.20;;
9102;SDS011;4587;51.434;6.788;2023-07-28T05:44:02;3.40;;;3.00;;
9102;SDS011;4587;51.434;6.788;2023-07-28T05:46:28;2.60;;;2.30;;
9102;SDS011;4587;51.434;6.788;2023-07-28T05:48:57;2.40;;;2.20;;
9102;SDS011;4587;51.434;6.788;2023-07-28T05:51:23;2.40;;;2.10;;
9102;SDS011;4587;51.434;6.788;2023-07-28T05:53:49;4.23;;;2.60;;
9102;SDS011;4587;51.434;6.788;2023-07-28T05:56:15;4.13;;;2.60;;
9102;SDS011;4587;51.434;6.788;2023-07-28T05:58:41;3.63;;;2.93;;
9102;SDS011;4587;51.434;6.788;2023-07-28T06:01:06;2.70;;;2.50;;
9102;SDS011;4587;51.434;6.788;2023-07-28T06:03:32;3.43;;;3.13;;
9102;SDS011;4587;51.434;6.788;2023-07-28T06:05:58;4.03;;;2.83;;
9102;SDS011;4587;51.434;6.788;2023-07-28T06:08:23;3.70;;;3.30;;
9102;SDS011;4587;51.434;6.788;2023-07-28T06:10:49;3.17;;;2.87;;
9102;SDS011;4587;51.434;6.788;2023-07-28T06:13:14;4.13;;;2.97;;
9102;SDS011;4587;51.434;6.788;2023-07-28T06:15:41;3.17;;;2.87;;
9102;SDS011;4587;51.434;6.788;2023-07-28T06:18:07;3.40;;;2.70;;
9102;SDS011;4587;51.434;6.788;2023-07-28T06:20:32;2.80;;;2.60;;
9102;SDS011;4587;51.434;6.788;2023-07-28T06:22:59;3.97;;;2.43;;
9102;SDS011;4587;51.434;6.788;2023-07-28T06:25:25;4.00;;;2.40;;
9102;SDS011;4587;51.434;6.788;2023-07-28T06:27:51;3.90;;;2.77;;
9102;SDS011;4587;51.434;6.788;2023-07-28T06:30:16;3.03;;;2.40;;
9102;SDS011;4587;51.434;6.788;2023-07-28T06:32:42;2.87;;;2.30;;
9102;SDS011;4587;51.434;6.788;2023-07-28T06:35:07;3.40;;;2.67;;
9102;SDS011;4587;51.434;6.788;2023-07-28T06:37:34;3.20;;;2.60;;
9102;SDS011;4587;51.434;6.788;2023-07-28T06:40:03;4.53;;;2.87;;
9102;SDS011;4587;51.434;6.788;2023-07-28T06:42:30;4.10;;;3.03;;
9102;SDS011;4587;51.434;6.788;2023-07-28T06:44:57;4.70;;;3.17;;
9102;SDS011;4587;51.434;6.788;2023-07-28T06:47:23;3.70;;;3.17;;
9102;SDS011;4587;51.434;6.788;2023-07-28T06:49:48;3.80;;;3.30;;
9102;SDS011;4587;51.434;6.788;2023-07-28T06:52:14;3.70;;;3.30;;
9102;SDS011;4587;51.434;6.788;2023-07-28T06:54:39;4.70;;;3.80;;
9102;SDS011;4587;51.434;6.788;2023-07-28T06:57:05;4.17;;;3.67;;
9102;SDS011;4587;51.434;6.788;2023-07-28T06:59:31;6.60;;;3.80;;
9102;SDS011;4587;51.434;6.788;2023-07-28T07:01:57;5.67;;;4.10;;
9102;SDS011;4587;51.434;6.788;2023-07-28T07:04:22;5.57;;;4.97;;
9102;SDS011;4587;51.434;6.788;2023-07-28T07:06:48;5.00;;;4.50;;
9102;SDS011;4587;51.434;6.788;2023-07-28T07:09:14;5.20;;;4.40;;
9102;SDS011;4587;51.434;6.788;2023-07-28T07:11:39;6.17;;;4.83;;
9102;SDS011;4587;51.434;6.788;2023-07-28T07:14:05;5.80;;;4.80;;
9102;SDS011;4587;51.434;6.788;2023-07-28T07:16:31;5.63;;;5.00;;
9102;SDS011;4587;51.434;6.788;2023-07-28T07:18:57;6.13;;;4.90;;
9102;SDS011;4587;51.434;6.788;2023-07-28T07:21:23;5.83;;;4.70;;
9102;SDS011;4587;51.434;6.788;2023-07-28T07:23:49;5.63;;;5.10;;
9102;SDS011;4587;51.434;6.788;2023-07-28T07:26:14;5.63;;;5.03;;
9102;SDS011;4587;51.434;6.788;2023-07-28T07:28:40;6.30;;;5.40;;
9102;SDS011;4587;51.434;6.788;2023-07-28T07:31:12;5.60;;;5.03;;
9102;SDS011;4587;51.434;6.788;2023-07-28T07:33:38;8.00;;;5.30;;
9102;SDS011;4587;51.434;6.788;2023-07-28T07:36:04;6.87;;;5.80;;
9102;SDS011;4587;51.434;6.788;2023-07-28T07:38:30;6.13;;;5.53;;
9102;SDS011;4587;51.434;6.788;2023-07-28T07:40:55;7.10;;;5.40;;
9102;SDS011;4587;51.434;6.788;2023-07-28T07:43:21;5.90;;;5.30;;
9102;SDS011;4587;51.434;6.788;2023-07-28T07:45:46;6.97;;;4.83;;
9102;SDS011;4587;51.434;6.788;2023-07-28T07:48:12;6.67;;;5.87;;
9102;SDS011;4587;51.434;6.788;2023-07-28T07:50:38;5.70;;;5.10;;
9102;SDS011;4587;51.434;6.788;2023-07-28T07:53:03;5.70;;;4.67;;
9102;SDS011;4587;51.434;6.788;2023-07-28T07:55:29;5.57;;;4.97;;
9102;SDS011;4587;51.434;6.788;2023-07-28T07:57:56;5.50;;;4.60;;
9102;SDS011;4587;51.434;6.788;2023-07-28T08:00:22;5.23;;;4.73;;
9102;SDS011;4587;51.434;6.788;2023-07-28T08:02:48;6.03;;;4.77;;
9102;SDS011;4587;51.434;6.788;2023-07-28T08:05:14;5.20;;;4.60;;
9102;SDS011;4587;51.434;6.788;2023-07-28T08:07:40;5.77;;;4.57;;
9102;SDS011;4587;51.434;6.788;2023-07-28T08:10:06;5.53;;;4.50;;
9102;SDS011;4587;51.434;6.788;2023-07-28T08:12:32;4.10;;;3.70;;
9102;SDS011;4587;51.434;6.788;2023-07-28T08:14:58;4.20;;;3.73;;
9102;SDS011;4587;51.434;6.788;2023-07-28T08:17:23;3.87;;;3.10;;
9102;SDS011;4587;51.434;6.788;2023-07-28T08:19:49;3.70;;;3.40;;
9102;SDS011;4587;51.434;6.788;2023-07-28T08:22:14;3.40;;;3.10;;
9102;SDS011;4587;51.434;6.788;2023-07-28T08:24:40;3.50;;;2.93;;
9102;SDS011;4587;51.434;6.788;2023-07-28T08:27:06;3.13;;;2.23;;
9102;SDS011;4587;51.434;6.788;2023-07-28T08:29:31;2.30;;;2.10;;
9102;SDS011;4587;51.434;6.788;2023-07-28T08:31:57;1.53;;;1.40;;
9102;SDS011;4587;51.434;6.788;2023-07-28T08:34:23;1.50;;;1.40;;
9102;SDS011;4587;51.434;6.788;2023-07-28T08:36:48;2.13;;;1.70;;
9102;SDS011;4587;51.434;6.788;2023-07-28T08:39:14;1.67;;;1.50;;
9102;SDS011;4587;51.434;6.788;2023-07-28T08:41:40;2.40;;;2.10;;
9102;SDS011;4587;51.434;6.788;2023-07-28T08:44:06;2.30;;;2.10;;
9102;SDS011;4587;51.434;6.788;2023-07-28T08:46:32;2.10;;;1.90;;
9102;SDS011;4587;51.434;6.788;2023-07-28T08:48:59;3.23;;;1.80;;
9102;SDS011;4587;51.434;6.788;2023-07-28T08:51:25;1.77;;;1.43;;
9102;SDS011;4587;51.434;6.788;2023-07-28T08:53:50;1.67;;;1.57;;
9102;SDS011;4587;51.434;6.788;2023-07-28T08:56:16;2.10;;;1.60;;
9102;SDS011;4587;51.434;6.788;2023-07-28T08:58:41;2.50;;;2.30;;
9102;SDS011;4587;51.434;6.788;2023-07-28T09:01:07;3.07;;;2.87;;
9102;SDS011;4587;51.434;6.788;2023-07-28T09:03:34;2.47;;;2.37;;
9102;SDS011;4587;51.434;6.788;2023-07-28T09:06:02;2.93;;;2.73;;
9102;SDS011;4587;51.434;6.788;2023-07-28T09:08:30;2.43;;;2.23;;
9102;SDS011;4587;51.434;6.788;2023-07-28T09:10:57;3.57;;;2.50;;
9102;SDS011;4587;51.434;6.788;2023-07-28T09:13:30;2.90;;;2.47;;
9102;SDS011;4587;51.434;6.788;2023-07-28T09:16:39;4.20;;;2.70;;
9102;SDS011;4587;51.434;6.788;2023-07-28T09:19:05;3.67;;;3.10;;
9102;SDS011;4587;51.434;6.788;2023-07-28T09:21:32;3.20;;;2.90;;
9102;SDS011;4587;51.434;6.788;2023-07-28T09:24:01;4.40;;;3.20;;
9102;SDS011;4587;51.434;6.788;2023-07-28T09:29:20;3.70;;;3.40;;
9102;SDS011;4587;51.434;6.788;2023-07-28T09:31:47;5.67;;;3.10;;
9102;SDS011;4587;51.434;6.788;2023-07-28T09:34:23;3.40;;;3.00;;
9102;SDS011;4587;51.434;6.788;2023-07-28T09:36:56;3.33;;;2.73;;
9102;SDS011;4587;51.434;6.788;2023-07-28T09:39:23;3.17;;;2.60;;
9102;SDS011;4587;51.434;6.788;2023-07-28T09:41:49;3.60;;;2.90;;
9102;SDS011;4587;51.434;6.788;2023-07-28T09:44:15;4.47;;;2.50;;
9102;SDS011;4587;51.434;6.788;2023-07-28T09:46:47;2.87;;;2.40;;
9102;SDS011;4587;51.434;6.788;2023-07-28T09:49:16;2.53;;;2.33;;
9102;SDS011;4587;51.434;6.788;2023-07-28T09:51:48;2.63;;;2.43;;
9102;SDS011;4587;51.434;6.788;2023-07-28T09:54:20;2.80;;;2.40;;
9102;SDS011;4587;51.434;6.788;2023-07-28T09:56:53;2.47;;;2.23;;
9102;SDS011;4587;51.434;6.788;2023-07-28T09:59:35;2.13;;;2.00;;
9102;SDS011;4587;51.434;6.788;2023-07-28T10:02:03;2.23;;;1.73;;
9102;SDS011;4587;51.434;6.788;2023-07-28T10:04:30;2.27;;;2.10;;
9102;SDS011;4587;51.434;6.788;2023-07-28T10:06:57;4.97;;;2.30;;
9102;SDS011;4587;51.434;6.788;2023-07-28T10:09:27;2.90;;;2.43;;
9102;SDS011;4587;51.434;6.788;2023-07-28T10:11:55;2.73;;;2.40;;
9102;SDS011;4587;51.434;6.788;2023-07-28T10:16:59;2.07;;;1.83;;
9102;SDS011;4587;51.434;6.788;2023-07-28T10:19:27;2.30;;;1.70;;
9102;SDS011;4587;51.434;6.788;2023-07-28T10:21:58;2.63;;;1.90;;
9102;SDS011;4587;51.434;6.788;2023-07-28T10:27:28;2.87;;;1.73;;
9102;SDS011;4587;51.434;6.788;2023-07-28T10:29:56;2.07;;;1.70;;
9102;SDS011;4587;51.434;6.788;2023-07-28T10:32:25;2.27;;;1.80;;
9102;SDS011;4587;51.434;6.788;2023-07-28T10:35:27;3.37;;;1.73;;
9102;SDS011;4587;51.434;6.788;2023-07-28T10:37:48;2.80;;;1.70;;
9102;SDS011;4587;51.434;6.788;2023-07-28T10:40:24;2.37;;;1.80;;
9102;SDS011;4587;51.434;6.788;2023-07-28T10:43:02;1.80;;;1.50;;
9102;SDS011;4587;51.434;6.788;2023-07-28T10:45:30;2.07;;;1.70;;
9102;SDS011;4587;51.434;6.788;2023-07-28T10:47:57;2.97;;;1.80;;
9102;SDS011;4587;51.434;6.788;2023-07-28T10:50:28;3.20;;;1.83;;
9102;SDS011;4587;51.434;6.788;2023-07-28T10:52:56;2.20;;;1.73;;
9102;SDS011;4587;51.434;6.788;2023-07-28T10:55:22;2.63;;;1.50;;
9102;SDS011;4587;51.434;6.788;2023-07-28T10:57:50;2.10;;;1.70;;
9102;SDS011;4587;51.434;6.788;2023-07-28T11:00:20;2.47;;;1.60;;
9102;SDS011;4587;51.434;6.788;2023-07-28T11:02:47;2.23;;;1.60;;
9102;SDS011;4587;51.434;6.788;2023-07-28T11:05:18;2.60;;;1.30;;
9102;SDS011;4587;51.434;6.788;2023-07-28T11:07:47;2.20;;;1.40;;
9102;SDS011;4587;51.434;6.788;2023-07-28T11:10:13;2.60;;;1.40;;
9102;SDS011;4587;51.434;6.788;2023-07-28T11:12:43;3.30;;;1.20;;
9102;SDS011;4587;51.434;6.788;2023-07-28T11:15:10;2.95;;;1.48;;
9102;SDS011;4587;51.434;6.788;2023-07-28T11:17:38;1.70;;;1.60;;
9102;SDS011;4587;51.434;6.788;2023-07-28T11:20:20;2.50;;;1.30;;
9102;SDS011;4587;51.434;6.788;2023-07-28T11:23:00;2.73;;;1.20;;
9102;SDS011;4587;51.434;6.788;2023-07-28T11:25:29;2.57;;;0.80;;
9102;SDS011;4587;51.434;6.788;2023-07-28T11:27:55;1.00;;;1.00;;
9102;SDS011;4587;51.434;6.788;2023-07-28T11:30:22;1.70;;;0.90;;
9102;SDS011;4587;51.434;6.788;2023-07-28T11:32:49;1.37;;;0.90;;
9102;SDS011;4587;51.434;6.788;2023-07-28T11:35:17;2.70;;;1.00;;
9102;SDS011;4587;51.434;6.788;2023-07-28T11:37:48;1.10;;;1.00;;
9102;SDS011;4587;51.434;6.788;2023-07-28T11:40:20;1.10;;;1.00;;
9102;SDS011;4587;51.434;6.788;2023-07-28T11:42:47;1.53;;;1.23;;
9102;SDS011;4587;51.434;6.788;2023-07-28T11:45:14;1.70;;;1.03;;
9102;SDS011;4587;51.434;6.788;2023-07-28T11:47:56;1.33;;;1.00;;
9102;SDS011;4587;51.434;6.788;2023-07-28T11:50:28;1.77;;;0.93;;
9102;SDS011;4587;51.434;6.788;2023-07-28T11:52:58;2.77;;;1.00;;
9102;SDS011;4587;51.434;6.788;2023-07-28T11:55:25;0.90;;;0.80;;
9102;SDS011;4587;51.434;6.788;2023-07-28T11:57:53;0.70;;;0.70;;
9102;SDS011;4587;51.434;6.788;2023-07-28T12:00:24;1.23;;;0.80;;
9102;SDS011;4587;51.434;6.788;2023-07-28T12:05:40;1.13;;;0.70;;
9102;SDS011;4587;51.434;6.788;2023-07-28T12:08:07;1.63;;;0.70;;
9102;SDS011;4587;51.434;6.788;2023-07-28T12:10:33;1.65;;;0.70;;
9102;SDS011;4587;51.434;6.788;2023-07-28T12:13:05;0.90;;;0.57;;
9102;SDS011;4587;51.434;6.788;2023-07-28T12:15:32;0.68;;;0.50;;
9102;SDS011;4587;51.434;6.788;2023-07-28T12:18:03;0.77;;;0.55;;
9102;SDS011;4587;51.434;6.788;2023-07-28T12:20:41;1.65;;;0.52;;
9102;SDS011;4587;51.434;6.788;2023-07-28T12:23:07;0.82;;;0.43;;
9102;SDS011;4587;51.434;6.788;2023-07-28T12:25:33;0.57;;;0.30;;
9102;SDS011;4587;51.434;6.788;2023-07-28T12:28:01;0.68;;;0.45;;
9102;SDS011;4587;51.434;6.788;2023-07-28T12:30:27;0.52;;;0.50;;
9102;SDS011;4587;51.434;6.788;2023-07-28T12:32:53;0.40;;;0.32;;
9102;SDS011;4587;51.434;6.788;2023-07-28T12:35:18;0.50;;;0.40;;
9102;SDS011;4587;51.434;6.788;2023-07-28T12:37:44;0.75;;;0.50;;
9102;SDS011;4587;51.434;6.788;2023-07-28T12:40:10;1.52;;;0.40;;
9102;SDS011;4587;51.434;6.788;2023-07-28T12:42:36;0.98;;;0.40;;
9102;SDS011;4587;51.434;6.788;2023-07-28T12:45:02;0.50;;;0.50;;
9102;SDS011;4587;51.434;6.788;2023-07-28T12:47:27;0.70;;;0.35;;
9102;SDS011;4587;51.434;6.788;2023-07-28T12:49:53;0.87;;;0.57;;
9102;SDS011;4587;51.434;6.788;2023-07-28T12:52:19;2.15;;;0.50;;
9102;SDS011;4587;51.434;6.788;2023-07-28T12:54:45;2.00;;;0.60;;
9102;SDS011;4587;51.434;6.788;2023-07-28T12:57:10;0.80;;;0.60;;
9102;SDS011;4587;51.434;6.788;2023-07-28T12:59:37;0.95;;;0.50;;
9102;SDS011;4587;51.434;6.788;2023-07-28T13:02:03;1.17;;;0.60;;
9102;SDS011;4587;51.434;6.788;2023-07-28T13:04:29;1.13;;;0.47;;
9102;SDS011;4587;51.434;6.788;2023-07-28T13:06:54;0.80;;;0.50;;
9102;SDS011;4587;51.434;6.788;2023-07-28T13:09:20;0.50;;;0.50;;
9102;SDS011;4587;51.434;6.788;2023-07-28T13:11:45;0.60;;;0.40;;
9102;SDS011;4587;51.434;6.788;2023-07-28T13:14:11;0.70;;;0.50;;
9102;SDS011;4587;51.434;6.788;2023-07-28T13:16:36;1.90;;;0.50;;
9102;SDS011;4587;51.434;6.788;2023-07-28T13:19:03;1.20;;;0.52;;
9102;SDS011;4587;51.434;6.788;2023-07-28T13:21:29;0.93;;;0.60;;
9102;SDS011;4587;51.434;6.788;2023-07-28T13:23:54;1.20;;;0.50;;
9102;SDS011;4587;51.434;6.788;2023-07-28T13:26:20;0.70;;;0.50;;
9102;SDS011;4587;51.434;6.788;2023-07-28T13:28:45;1.00;;;0.57;;
9102;SDS011;4587;51.434;6.788;2023-07-28T13:31:15;1.00;;;0.50;;
9102;SDS011;4587;51.434;6.788;2023-07-28T13:33:41;1.52;;;0.60;;
9102;SDS011;4587;51.434;6.788;2023-07-28T13:36:07;0.63;;;0.52;;
9102;SDS011;4587;51.434;6.788;2023-07-28T13:38:33;0.52;;;0.50;;
9102;SDS011;4587;51.434;6.788;2023-07-28T13:40:59;0.70;;;0.50;;
9102;SDS011;4587;51.434;6.788;2023-07-28T13:43:25;2.40;;;0.40;;
9102;SDS011;4587;51.434;6.788;2023-07-28T13:45:50;2.65;;;0.60;;
9102;SDS011;4587;51.434;6.788;2023-07-28T13:48:16;1.23;;;0.65;;
9102;SDS011;4587;51.434;6.788;2023-07-28T13:50:42;0.60;;;0.60;;
9102;SDS011;4587;51.434;6.788;2023-07-28T13:53:07;1.33;;;0.63;;
9102;SDS011;4587;51.434;6.788;2023-07-28T13:55:33;0.88;;;0.60;;
9102;SDS011;4587;51.434;6.788;2023-07-28T13:57:59;1.38;;;0.85;;
9102;SDS011;4587;51.434;6.788;2023-07-28T14:00:24;1.13;;;0.70;;
9102;SDS011;4587;51.434;6.788;2023-07-28T14:02:50;0.68;;;0.60;;
9102;SDS011;4587;51.434;6.788;2023-07-28T14:05:15;1.13;;;0.70;;
9102;SDS011;4587;51.434;6.788;2023-07-28T14:07:41;0.60;;;0.60;;
9102;SDS011;4587;51.434;6.788;2023-07-28T14:10:06;0.93;;;0.60;;
9102;SDS011;4587;51.434;6.788;2023-07-28T14:12:34;0.70;;;0.60;;
9102;SDS011;4587;51.434;6.788;2023-07-28T14:15:00;0.60;;;0.60;;
9102;SDS011;4587;51.434;6.788;2023-07-28T14:17:26;3.13;;;0.80;;
9102;SDS011;4587;51.434;6.788;2023-07-28T14:19:51;2.58;;;0.80;;
9102;SDS011;4587;51.434;6.788;2023-07-28T14:22:17;1.13;;;0.70;;
9102;SDS011;4587;51.434;6.788;2023-07-28T14:24:42;0.68;;;0.65;;
9102;SDS011;4587;51.434;6.788;2023-07-28T14:27:08;0.93;;;0.75;;
9102;SDS011;4587;51.434;6.788;2023-07-28T14:29:33;1.80;;;0.93;;
9102;SDS011;4587;51.434;6.788;2023-07-28T14:31:59;1.00;;;0.70;;
9102;SDS011;4587;51.434;6.788;2023-07-28T14:34:24;0.93;;;0.70;;
9102;SDS011;4587;51.434;6.788;2023-07-28T14:36:50;0.90;;;0.70;;
9102;SDS011;4587;51.434;6.788;2023-07-28T14:39:15;1.10;;;0.90;;
9102;SDS011;4587;51.434;6.788;2023-07-28T14:41:42;2.35;;;0.93;;
9102;SDS011;4587;51.434;6.788;2023-07-28T14:44:08;1.03;;;0.80;;
9102;SDS011;4587;51.434;6.788;2023-07-28T14:46:33;2.67;;;1.10;;
9102;SDS011;4587;51.434;6.788;2023-07-28T14:48:59;1.65;;;0.80;;
9102;SDS011;4587;51.434;6.788;2023-07-28T14:51:24;1.35;;;0.85;;
9102;SDS011;4587;51.434;6.788;2023-07-28T14:53:50;1.02;;;0.90;;
9102;SDS011;4587;51.434;6.788;2023-07-28T14:56:15;2.58;;;0.80;;
9102;SDS011;4587;51.434;6.788;2023-07-28T14:58:42;1.30;;;0.70;;
9102;SDS011;4587;51.434;6.788;2023-07-28T15:01:11;0.60;;;0.60;;
9102;SDS011;4587;51.434;6.788;2023-07-28T15:03:37;0.70;;;0.63;;
9102;SDS011;4587;51.434;6.788;2023-07-28T15:06:03;1.15;;;0.70;;
9102;SDS011;4587;51.434;6.788;2023-07-28T15:08:29;1.73;;;0.67;;
9102;SDS011;4587;51.434;6.788;2023-07-28T15:10:56;1.60;;;0.70;;
9102;SDS011;4587;51.434;6.788;2023-07-28T15:13:22;2.00;;;0.70;;
9102;SDS011;4587;51.434;6.788;2023-07-28T15:15:48;1.27;;;0.90;;
9102;SDS011;4587;51.434;6.788;2023-07-28T15:18:14;2.23;;;0.90;;
9102;SDS011;4587;51.434;6.788;2023-07-28T15:20:40;1.05;;;0.90;;
9102;SDS011;4587;51.434;6.788;2023-07-28T15:23:06;0.80;;;0.80;;
9102;SDS011;4587;51.434;6.788;2023-07-28T15:25:32;1.23;;;0.82;;
9102;SDS011;4587;51.434;6.788;2023-07-28T15:27:58;0.60;;;0.60;;
9102;SDS011;4587;51.434;6.788;2023-07-28T15:30:23;1.20;;;0.90;;